Time;durP1;ratioP1;P1;durP2;ratioP2;P2;SDS_P1;SDS_P2;PMS_P1;PMS_P2;Temp;Humidity;BMP_temperature;BMP_pressure;BME280_temperature;BME280_humidity;BME280_pressure;Samples;Min_cycle;Max_cycle;Signal;HPM_P1;HPM_P2
2022/08/26 00:01:52;;;;;;;7.10;6.50;;;;;;;;;;5203712;28;20458;-67
2022/08/26 00:04:23;;;;;;;4.72;4.40;;;;;;;;;;5203085;28;20022;-68
2022/08/26 00:06:54;;;;;;;12.68;5.57;;;;;;;;;;5201802;28;20108;-67
2022/08/26 00:09:25;;;;;;;6.28;5.03;;;;;;;;;;5203179;28;20441;-68
2022/08/26 00:11:55;;;;;;;6.78;5.05;;;;;;;;;;5203466;28;20393;-68
2022/08/26 00:14:26;;;;;;;9.85;4.53;;;;;;;;;;5203334;28;20032;-66
2022/08/26 00:16:56;;;;;;;5.72;5.32;;;;;;;;;;5203434;28;20441;-67
2022/08/26 00:19:27;;;;;;;6.57;4.25;;;;;;;;;;5203360;28;20041;-67
2022/08/26 00:21:57;;;;;;;12.40;5.97;;;;;;;;;;5203623;28;20017;-68
2022/08/26 00:24:27;;;;;;;8.35;5.20;;;;;;;;;;5203348;28;20032;-67
2022/08/26 00:26:58;;;;;;;4.15;3.83;;;;;;;;;;5202056;28;20401;-66
2022/08/26 00:29:30;;;;;;;10.80;4.50;;;;;;;;;;5203104;28;20446;-66
2022/08/26 00:32:01;;;;;;;6.47;5.03;;;;;;;;;;5203016;28;20018;-67
2022/08/26 00:34:32;;;;;;;9.77;4.32;;;;;;;;;;5202285;28;20032;-67
2022/08/26 00:37:02;;;;;;;3.92;3.72;;;;;;;;;;5203508;28;20032;-67
2022/08/26 00:39:33;;;;;;;8.02;5.10;;;;;;;;;;5203196;28;20021;-66
2022/08/26 00:42:03;;;;;;;4.20;3.92;;;;;;;;;;5202923;28;20304;-66
2022/08/26 00:44:33;;;;;;;5.47;3.55;;;;;;;;;;5202397;28;20037;-67
2022/08/26 00:47:06;;;;;;;12.80;3.77;;;;;;;;;;5202763;28;20024;-67
2022/08/26 00:49:38;;;;;;;10.88;4.93;;;;;;;;;;5202457;28;20335;-68
2022/08/26 00:52:12;;;;;;;7.68;4.07;;;;;;;;;;5202732;28;20032;-66
2022/08/26 00:54:46;;;;;;;5.25;3.50;;;;;;;;;;5202437;28;20022;-67
2022/08/26 00:57:17;;;;;;;6.15;3.10;;;;;;;;;;5202948;28;20014;-67
2022/08/26 00:59:50;;;;;;;5.97;4.10;;;;;;;;;;5203332;28;20051;-68
2022/08/26 01:02:20;;;;;;;8.35;3.53;;;;;;;;;;5203044;28;20014;-66
2022/08/26 01:04:52;;;;;;;8.40;3.75;;;;;;;;;;5202139;28;20036;-66
2022/08/26 01:07:23;;;;;;;7.60;3.60;;;;;;;;;;5202624;28;20096;-66
2022/08/26 01:09:54;;;;;;;4.72;2.97;;;;;;;;;;5202743;28;20378;-66
2022/08/26 01:12:26;;;;;;;7.40;2.05;;;;;;;;;;5201126;28;20020;-65
2022/08/26 01:14:56;;;;;;;4.60;3.58;;;;;;;;;;5200840;28;20021;-68
2022/08/26 01:17:27;;;;;;;5.00;2.58;;;;;;;;;;5201342;28;20082;-65
2022/08/26 01:20:05;;;;;;;3.47;1.98;;;;;;;;;;5201026;28;20423;-66
2022/08/26 01:22:41;;;;;;;7.00;2.53;;;;;;;;;;5201583;28;20381;-65
2022/08/26 01:25:12;;;;;;;1.98;1.88;;;;;;;;;;5201184;28;20061;-67
2022/08/26 01:27:42;;;;;;;9.15;5.05;;;;;;;;;;5201635;28;20025;-66
2022/08/26 01:30:13;;;;;;;3.97;2.45;;;;;;;;;;5201745;28;20392;-66
2022/08/26 01:32:44;;;;;;;2.65;2.45;;;;;;;;;;5201760;28;20021;-65
2022/08/26 01:35:14;;;;;;;2.80;2.60;;;;;;;;;;5199871;28;20124;-67
2022/08/26 01:37:46;;;;;;;3.70;2.63;;;;;;;;;;5201723;28;20033;-65
2022/08/26 01:40:19;;;;;;;5.35;2.20;;;;;;;;;;5201389;28;20104;-66
2022/08/26 01:42:49;;;;;;;3.35;2.53;;;;;;;;;;5204847;28;20357;-66
2022/08/26 01:45:24;;;;;;;2.08;1.98;;;;;;;;;;5204351;28;20120;-67
2022/08/26 01:47:57;;;;;;;3.05;2.47;;;;;;;;;;5204704;28;20032;-67
2022/08/26 01:50:29;;;;;;;2.33;2.22;;;;;;;;;;5204820;28;20017;-66
2022/08/26 01:53:04;;;;;;;6.13;3.22;;;;;;;;;;5205404;28;20370;-66
2022/08/26 01:55:37;;;;;;;2.60;1.95;;;;;;;;;;5204652;28;20025;-65
2022/08/26 01:58:10;;;;;;;3.30;3.05;;;;;;;;;;5204585;28;20090;-67
2022/08/26 02:00:40;;;;;;;3.38;2.70;;;;;;;;;;5202938;28;20053;-66
2022/08/26 02:03:17;;;;;;;2.55;2.42;;;;;;;;;;5204184;28;20041;-67
2022/08/26 02:05:52;;;;;;;10.70;3.15;;;;;;;;;;5202897;28;20531;-66
2022/08/26 02:08:29;;;;;;;4.57;1.77;;;;;;;;;;5204039;28;20528;-66
2022/08/26 02:11:00;;;;;;;2.97;2.28;;;;;;;;;;5203810;28;20084;-66
2022/08/26 02:13:31;;;;;;;3.55;3.25;;;;;;;;;;5203589;28;20611;-66
2022/08/26 02:16:02;;;;;;;8.15;3.40;;;;;;;;;;5204221;28;20096;-67
2022/08/26 02:18:34;;;;;;;4.60;2.72;;;;;;;;;;5203582;28;20458;-66
2022/08/26 02:21:04;;;;;;;1.73;1.63;;;;;;;;;;5204307;28;20430;-66
2022/08/26 02:23:35;;;;;;;2.33;2.22;;;;;;;;;;5203376;28;20022;-65
2022/08/26 02:26:13;;;;;;;4.22;2.17;;;;;;;;;;5203814;28;20047;-67
2022/08/26 02:28:51;;;;;;;2.35;2.25;;;;;;;;;;5202310;28;20044;-67
2022/08/26 02:31:22;;;;;;;6.85;3.08;;;;;;;;;;5202158;28;20144;-68
2022/08/26 02:33:52;;;;;;;6.75;2.00;;;;;;;;;;5203196;28;20359;-68
2022/08/26 02:36:24;;;;;;;1.60;1.60;;;;;;;;;;5203992;28;20377;-65
2022/08/26 02:38:54;;;;;;;3.13;2.92;;;;;;;;;;5203655;28;20116;-68
2022/08/26 02:41:24;;;;;;;2.80;2.42;;;;;;;;;;5203862;28;20442;-67
2022/08/26 02:43:55;;;;;;;2.55;2.45;;;;;;;;;;5203154;28;20026;-68
2022/08/26 02:46:25;;;;;;;3.67;2.67;;;;;;;;;;5203827;28;20095;-68
2022/08/26 02:48:56;;;;;;;3.20;2.95;;;;;;;;;;5203518;28;20260;-66
2022/08/26 02:51:27;;;;;;;3.63;3.03;;;;;;;;;;5203759;28;20125;-67
2022/08/26 02:53:57;;;;;;;8.82;1.88;;;;;;;;;;5203188;28;20100;-67
2022/08/26 02:56:28;;;;;;;5.05;2.15;;;;;;;;;;5203586;28;20095;-67
2022/08/26 02:58:58;;;;;;;4.88;2.63;;;;;;;;;;5203798;28;20029;-66
2022/08/26 03:01:30;;;;;;;4.32;1.33;;;;;;;;;;5202589;28;20028;-66
2022/08/26 03:04:02;;;;;;;10.15;2.95;;;;;;;;;;5203629;28;20029;-66
2022/08/26 03:06:32;;;;;;;3.72;1.77;;;;;;;;;;5203879;28;20033;-67
2022/08/26 03:09:03;;;;;;;2.22;1.95;;;;;;;;;;5204263;28;20481;-67
2022/08/26 03:11:34;;;;;;;1.38;1.27;;;;;;;;;;5204114;28;20029;-67
2022/08/26 03:14:04;;;;;;;4.78;2.83;;;;;;;;;;5204045;28;20022;-67
2022/08/26 03:16:35;;;;;;;4.75;1.73;;;;;;;;;;5203280;28;20018;-66
2022/08/26 03:19:06;;;;;;;2.28;1.63;;;;;;;;;;5203993;28;20096;-66
2022/08/26 03:21:37;;;;;;;5.60;2.78;;;;;;;;;;5204221;28;20044;-67
2022/08/26 03:24:09;;;;;;;4.63;2.30;;;;;;;;;;5203448;28;20017;-67
2022/08/26 03:26:39;;;;;;;4.28;2.25;;;;;;;;;;5202966;28;20440;-66
2022/08/26 03:31:59;;;;;;;17.90;3.08;;;;;;;;;;5204523;28;20087;-67
2022/08/26 03:34:30;;;;;;;2.20;2.10;;;;;;;;;;5202044;28;20102;-68
2022/08/26 03:37:00;;;;;;;4.68;2.75;;;;;;;;;;5204541;28;20139;-67
2022/08/26 03:39:31;;;;;;;9.47;2.10;;;;;;;;;;5203944;28;20032;-67
2022/08/26 03:42:01;;;;;;;3.00;2.75;;;;;;;;;;5203662;28;20275;-66
2022/08/26 03:44:31;;;;;;;2.17;2.08;;;;;;;;;;5203891;28;20029;-66
2022/08/26 03:47:02;;;;;;;9.47;2.20;;;;;;;;;;5203791;28;20473;-67
2022/08/26 03:49:34;;;;;;;6.50;2.88;;;;;;;;;;5202871;28;20344;-67
2022/08/26 03:52:04;;;;;;;4.35;3.17;;;;;;;;;;5203798;28;20021;-67
2022/08/26 03:54:35;;;;;;;6.75;2.67;;;;;;;;;;5202956;28;20021;-67
2022/08/26 03:57:05;;;;;;;3.50;2.22;;;;;;;;;;5202986;28;20401;-66
2022/08/26 03:59:35;;;;;;;1.83;1.77;;;;;;;;;;5202369;28;20017;-68
2022/08/26 04:02:06;;;;;;;2.38;2.20;;;;;;;;;;5203520;28;20021;-66
2022/08/26 04:04:36;;;;;;;2.47;2.38;;;;;;;;;;5203256;28;20028;-67
2022/08/26 04:07:07;;;;;;;2.13;2.00;;;;;;;;;;5204119;28;20047;-66
2022/08/26 04:09:37;;;;;;;3.30;2.92;;;;;;;;;;5204019;28;20013;-67
2022/08/26 04:12:08;;;;;;;3.50;3.20;;;;;;;;;;5204592;28;20431;-66
2022/08/26 04:14:38;;;;;;;4.38;3.42;;;;;;;;;;5203281;28;20918;-69
2022/08/26 04:17:08;;;;;;;3.95;3.13;;;;;;;;;;5204681;28;20049;-65
2022/08/26 04:19:39;;;;;;;3.35;2.67;;;;;;;;;;5203613;28;20088;-67
2022/08/26 04:22:10;;;;;;;2.70;2.50;;;;;;;;;;5204015;28;20031;-66
2022/08/26 04:24:40;;;;;;;4.57;3.63;;;;;;;;;;5203620;28;20340;-69
2022/08/26 04:27:10;;;;;;;6.60;2.42;;;;;;;;;;5204464;28;20021;-69
2022/08/26 04:29:41;;;;;;;2.85;2.55;;;;;;;;;;5203509;28;20469;-66
2022/08/26 04:32:12;;;;;;;2.78;2.67;;;;;;;;;;5200817;28;20021;-66
2022/08/26 04:34:42;;;;;;;2.60;2.33;;;;;;;;;;5202606;28;20088;-66
2022/08/26 04:37:12;;;;;;;2.72;2.47;;;;;;;;;;5203204;28;20028;-66
2022/08/26 04:39:43;;;;;;;2.50;2.35;;;;;;;;;;5203037;28;20021;-67
2022/08/26 04:42:14;;;;;;;5.65;2.58;;;;;;;;;;5203261;28;20564;-66
2022/08/26 04:44:45;;;;;;;5.70;2.78;;;;;;;;;;5202299;28;20029;-66
2022/08/26 04:47:15;;;;;;;2.58;2.20;;;;;;;;;;5201791;28;20091;-67
2022/08/26 04:49:45;;;;;;;4.07;2.92;;;;;;;;;;5203290;28;20033;-66
2022/08/26 04:52:16;;;;;;;2.63;2.33;;;;;;;;;;5203302;28;20423;-67
2022/08/26 04:54:46;;;;;;;2.23;2.10;;;;;;;;;;5202271;28;20021;-70
2022/08/26 04:57:16;;;;;;;7.13;3.08;;;;;;;;;;5203144;28;20271;-66
2022/08/26 04:59:46;;;;;;;2.03;1.92;;;;;;;;;;5202666;28;20460;-69
2022/08/26 05:02:17;;;;;;;2.70;2.50;;;;;;;;;;5202812;28;20025;-68
2022/08/26 05:04:47;;;;;;;2.08;1.90;;;;;;;;;;5202682;28;20287;-65
2022/08/26 05:07:17;;;;;;;3.47;3.17;;;;;;;;;;5202635;28;20036;-65
2022/08/26 05:09:47;;;;;;;3.37;2.87;;;;;;;;;;5201936;28;20032;-65
2022/08/26 05:12:18;;;;;;;1.90;1.90;;;;;;;;;;5202066;28;20264;-66
2022/08/26 05:14:48;;;;;;;4.28;2.65;;;;;;;;;;5201470;28;20333;-66
2022/08/26 05:17:18;;;;;;;6.10;3.53;;;;;;;;;;5204837;28;20028;-66
2022/08/26 05:19:49;;;;;;;6.63;3.72;;;;;;;;;;5202740;28;20264;-66
2022/08/26 05:22:20;;;;;;;2.67;2.22;;;;;;;;;;5203802;28;20482;-66
2022/08/26 05:24:50;;;;;;;2.50;2.38;;;;;;;;;;5220169;22;20057;-65
2022/08/26 05:27:20;;;;;;;2.60;2.50;;;;;;;;;;5207982;28;20023;-65
2022/08/26 05:29:54;;;;;;;4.03;2.63;;;;;;;;;;5207139;28;20333;-65
2022/08/26 05:32:25;;;;;;;2.45;2.35;;;;;;;;;;5207537;28;20291;-65
2022/08/26 05:34:55;;;;;;;3.83;3.53;;;;;;;;;;5208214;28;20021;-65
2022/08/26 05:37:26;;;;;;;2.97;2.35;;;;;;;;;;5208672;28;20271;-65
2022/08/26 05:39:56;;;;;;;3.58;3.38;;;;;;;;;;5208229;28;20156;-65
2022/08/26 05:42:27;;;;;;;2.22;2.13;;;;;;;;;;5207389;28;20009;-63
2022/08/26 05:44:57;;;;;;;5.82;2.15;;;;;;;;;;5207509;28;20470;-65
2022/08/26 05:47:28;;;;;;;2.05;1.95;;;;;;;;;;5207910;28;20405;-65
2022/08/26 05:49:59;;;;;;;3.58;2.30;;;;;;;;;;5206801;28;20065;-65
2022/08/26 05:52:29;;;;;;;5.20;2.63;;;;;;;;;;5208201;28;20028;-65
2022/08/26 05:55:00;;;;;;;2.63;2.45;;;;;;;;;;5206529;28;20021;-66
2022/08/26 05:57:30;;;;;;;2.55;2.20;;;;;;;;;;5207680;28;20099;-65
2022/08/26 06:00:00;;;;;;;2.90;2.60;;;;;;;;;;5207054;28;20420;-65
2022/08/26 06:02:31;;;;;;;6.05;2.38;;;;;;;;;;5207482;28;20636;-65
2022/08/26 06:05:01;;;;;;;4.75;2.78;;;;;;;;;;5206893;28;20389;-66
2022/08/26 06:10:20;;;;;;;3.30;2.58;;;;;;;;;;5202692;28;20388;-65
2022/08/26 06:12:50;;;;;;;2.60;2.50;;;;;;;;;;5206067;28;20108;-65
2022/08/26 06:15:21;;;;;;;3.58;2.55;;;;;;;;;;5206922;28;20096;-65
2022/08/26 06:17:51;;;;;;;4.97;1.73;;;;;;;;;;5206703;28;20024;-65
2022/08/26 06:20:21;;;;;;;5.75;3.20;;;;;;;;;;5206395;28;20260;-65
2022/08/26 06:25:40;;;;;;;1.88;1.77;;;;;;;;;;5206427;28;20048;-65
2022/08/26 06:28:12;;;;;;;3.20;2.63;;;;;;;;;;5206802;28;20018;-65
2022/08/26 06:30:42;;;;;;;4.72;2.13;;;;;;;;;;5205982;28;20018;-65
2022/08/26 06:33:13;;;;;;;2.03;1.92;;;;;;;;;;5207266;28;20209;-64
2022/08/26 06:35:45;;;;;;;3.92;3.50;;;;;;;;;;5206220;28;20473;-64
2022/08/26 06:38:16;;;;;;;2.97;1.90;;;;;;;;;;5206648;28;20383;-64
2022/08/26 06:40:48;;;;;;;4.88;2.83;;;;;;;;;;5206883;28;20068;-65
2022/08/26 06:43:20;;;;;;;1.80;1.70;;;;;;;;;;5205717;28;20104;-65
2022/08/26 06:45:50;;;;;;;5.47;2.05;;;;;;;;;;5205788;28;20021;-65
2022/08/26 06:48:21;;;;;;;2.17;2.08;;;;;;;;;;5206017;28;20108;-64
2022/08/26 06:51:00;;;;;;;2.10;2.00;;;;;;;;;;5206055;28;20068;-65
2022/08/26 06:53:30;;;;;;;5.32;3.65;;;;;;;;;;5204055;28;20373;-65
2022/08/26 06:56:01;;;;;;;1.98;1.88;;;;;;;;;;5202576;28;20036;-65
2022/08/26 06:58:32;;;;;;;1.98;1.45;;;;;;;;;;5202794;28;20017;-64
2022/08/26 07:01:17;;;;;;;3.70;1.88;;;;;;;;;;5206512;28;20144;-64
2022/08/26 07:03:48;;;;;;;4.32;3.22;;;;;;;;;;5206347;28;20021;-64
2022/08/26 07:06:18;;;;;;;7.72;2.30;;;;;;;;;;5206342;28;20498;-65
2022/08/26 07:08:49;;;;;;;2.08;1.40;;;;;;;;;;5203261;28;20036;-64
2022/08/26 07:11:19;;;;;;;5.88;1.63;;;;;;;;;;5205196;28;20416;-65
2022/08/26 07:13:50;;;;;;;3.50;1.73;;;;;;;;;;5205346;28;20028;-64
2022/08/26 07:16:20;;;;;;;5.43;2.77;;;;;;;;;;5205206;28;20472;-64
2022/08/26 07:18:52;;;;;;;1.45;1.35;;;;;;;;;;5202803;28;20729;-64
2022/08/26 07:21:23;;;;;;;6.82;2.88;;;;;;;;;;5210862;28;20024;-64
2022/08/26 07:23:53;;;;;;;2.40;2.08;;;;;;;;;;5205329;28;20025;-64
2022/08/26 07:26:25;;;;;;;2.03;1.92;;;;;;;;;;5205364;28;20427;-65
2022/08/26 07:28:56;;;;;;;4.40;2.03;;;;;;;;;;5205291;28;20028;-65
2022/08/26 07:31:29;;;;;;;5.93;3.55;;;;;;;;;;5205239;28;20095;-66
2022/08/26 07:34:00;;;;;;;1.75;1.65;;;;;;;;;;5205258;28;20052;-65
2022/08/26 07:36:31;;;;;;;2.92;2.40;;;;;;;;;;5205730;28;20053;-65
2022/08/26 07:39:01;;;;;;;8.77;2.30;;;;;;;;;;5204519;28;20437;-65
2022/08/26 07:41:32;;;;;;;1.88;1.50;;;;;;;;;;5203010;28;20021;-65
2022/08/26 07:44:02;;;;;;;7.30;1.90;;;;;;;;;;5203853;28;20109;-65
2022/08/26 07:46:33;;;;;;;2.95;2.47;;;;;;;;;;5204762;28;20021;-65
2022/08/26 07:49:04;;;;;;;2.38;2.28;;;;;;;;;;5204795;28;20490;-65
2022/08/26 07:51:35;;;;;;;4.07;1.95;;;;;;;;;;5204444;28;20025;-65
2022/08/26 07:54:06;;;;;;;7.40;3.95;;;;;;;;;;5203958;28;20102;-65
2022/08/26 07:56:36;;;;;;;4.35;2.78;;;;;;;;;;5204945;28;20017;-65
2022/08/26 07:59:06;;;;;;;2.00;1.90;;;;;;;;;;5204494;28;20474;-64
2022/08/26 08:01:37;;;;;;;2.97;2.78;;;;;;;;;;5204668;28;20021;-64
2022/08/26 08:04:07;;;;;;;5.18;2.13;;;;;;;;;;5203382;28;20032;-64
2022/08/26 08:06:37;;;;;;;2.80;2.70;;;;;;;;;;5203468;28;20061;-65
2022/08/26 08:09:08;;;;;;;7.10;3.40;;;;;;;;;;5204615;28;20262;-65
2022/08/26 08:11:39;;;;;;;3.80;2.72;;;;;;;;;;5202509;28;20776;-66
2022/08/26 08:14:10;;;;;;;2.50;2.35;;;;;;;;;;5204097;28;20100;-66
2022/08/26 08:16:40;;;;;;;3.92;3.58;;;;;;;;;;5204493;28;20534;-66
2022/08/26 08:19:10;;;;;;;6.20;3.15;;;;;;;;;;5203552;28;20028;-66
2022/08/26 08:21:42;;;;;;;5.07;3.13;;;;;;;;;;5203691;28;20196;-66
2022/08/26 08:24:12;;;;;;;3.30;2.78;;;;;;;;;;5203551;28;20052;-66
2022/08/26 08:26:42;;;;;;;2.60;2.50;;;;;;;;;;5203983;28;20029;-66
2022/08/26 08:29:12;;;;;;;8.40;2.97;;;;;;;;;;5202751;28;20279;-66
2022/08/26 08:31:43;;;;;;;4.00;3.45;;;;;;;;;;5202435;28;20265;-66
2022/08/26 08:34:13;;;;;;;4.68;4.13;;;;;;;;;;5203723;28;20022;-66
2022/08/26 08:36:45;;;;;;;9.68;3.60;;;;;;;;;;5204431;28;20021;-66
2022/08/26 08:39:16;;;;;;;2.72;2.63;;;;;;;;;;5203964;28;20017;-66
2022/08/26 08:41:55;;;;;;;5.82;3.20;;;;;;;;;;5203805;28;20017;-66
2022/08/26 08:44:26;;;;;;;4.95;3.95;;;;;;;;;;5204355;28;20028;-66
2022/08/26 08:47:12;;;;;;;3.80;2.90;;;;;;;;;;5204090;28;20022;-66
2022/08/26 08:49:43;;;;;;;3.67;3.40;;;;;;;;;;5202700;28;20038;-65
2022/08/26 08:52:36;;;;;;;2.03;1.92;;;;;;;;;;5207636;28;20104;-67
2022/08/26 08:55:07;;;;;;;5.55;2.30;;;;;;;;;;5207209;28;20139;-66
2022/08/26 08:57:56;;;;;;;10.02;3.35;;;;;;;;;;5208036;28;20096;-66
2022/08/26 09:00:27;;;;;;;2.67;2.47;;;;;;;;;;5207688;28;20028;-66
2022/08/26 09:03:21;;;;;;;4.38;2.60;;;;;;;;;;5205310;28;20017;-66
2022/08/26 09:05:52;;;;;;;4.18;3.80;;;;;;;;;;5207766;28;20025;-66
2022/08/26 09:08:26;;;;;;;2.88;2.55;;;;;;;;;;5206824;28;20025;-67
2022/08/26 09:11:00;;;;;;;4.20;3.45;;;;;;;;;;5207111;28;20025;-66
2022/08/26 09:13:30;;;;;;;4.35;2.42;;;;;;;;;;5206625;28;20020;-68
2022/08/26 09:16:01;;;;;;;3.00;2.77;;;;;;;;;;5206956;28;20017;-66
2022/08/26 09:18:42;;;;;;;2.10;2.03;;;;;;;;;;5207751;28;20269;-66
2022/08/26 09:21:14;;;;;;;2.83;2.63;;;;;;;;;;5207421;28;20017;-66
2022/08/26 09:23:44;;;;;;;6.93;3.58;;;;;;;;;;5206026;28;20021;-66
2022/08/26 09:26:21;;;;;;;1.85;1.75;;;;;;;;;;5206821;28;20033;-66
2022/08/26 09:28:56;;;;;;;3.75;2.70;;;;;;;;;;5206778;28;20018;-66
2022/08/26 09:31:28;;;;;;;3.70;3.10;;;;;;;;;;5206674;28;20024;-66
2022/08/26 09:34:15;;;;;;;4.72;2.85;;;;;;;;;;5204559;28;20033;-66
2022/08/26 09:36:53;;;;;;;4.68;2.53;;;;;;;;;;5207101;28;20017;-66
2022/08/26 09:39:26;;;;;;;1.58;1.58;;;;;;;;;;5206849;28;20024;-66
2022/08/26 09:42:10;;;;;;;2.00;1.90;;;;;;;;;;5206799;28;20021;-66
2022/08/26 09:44:59;;;;;;;3.15;2.75;;;;;;;;;;5206111;28;20052;-66
2022/08/26 09:47:31;;;;;;;1.75;1.63;;;;;;;;;;5206653;28;20079;-67
2022/08/26 09:50:07;;;;;;;2.10;1.77;;;;;;;;;;5206681;28;20017;-67
2022/08/26 09:52:37;;;;;;;2.38;2.00;;;;;;;;;;5206451;28;20116;-66
2022/08/26 09:55:19;;;;;;;2.83;2.50;;;;;;;;;;5205946;28;20533;-67
2022/08/26 09:57:50;;;;;;;2.25;2.10;;;;;;;;;;5206713;28;20028;-70
2022/08/26 10:00:29;;;;;;;2.08;1.92;;;;;;;;;;5206607;28;20024;-66
2022/08/26 10:03:02;;;;;;;2.08;1.90;;;;;;;;;;5205837;28;20021;-66
2022/08/26 10:05:36;;;;;;;2.85;2.45;;;;;;;;;;5204579;28;20108;-66
2022/08/26 10:08:19;;;;;;;2.00;1.90;;;;;;;;;;5206170;28;20025;-66
2022/08/26 10:10:50;;;;;;;2.67;2.33;;;;;;;;;;5206304;28;20053;-67
2022/08/26 10:13:26;;;;;;;2.47;1.90;;;;;;;;;;5206224;28;20528;-67
2022/08/26 10:16:05;;;;;;;1.98;1.88;;;;;;;;;;5206246;28;20113;-67
2022/08/26 10:18:39;;;;;;;3.60;1.98;;;;;;;;;;5206791;28;20395;-67
2022/08/26 10:21:12;;;;;;;2.47;2.28;;;;;;;;;;5204675;28;20022;-66
2022/08/26 10:23:47;;;;;;;2.45;2.35;;;;;;;;;;5205954;28;20009;-67
2022/08/26 10:26:18;;;;;;;2.45;1.33;;;;;;;;;;5205840;28;20738;-67
2022/08/26 10:28:48;;;;;;;3.33;2.20;;;;;;;;;;5206358;28;20013;-66
2022/08/26 10:31:18;;;;;;;1.48;1.38;;;;;;;;;;5205082;28;20022;-66
2022/08/26 10:33:49;;;;;;;2.23;2.13;;;;;;;;;;5205500;28;20057;-66
2022/08/26 10:39:13;;;;;;;5.43;1.55;;;;;;;;;;5206025;28;20032;-66
2022/08/26 10:41:46;;;;;;;2.47;1.42;;;;;;;;;;5205931;28;20018;-67
2022/08/26 10:44:17;;;;;;;2.65;1.95;;;;;;;;;;5203486;28;20025;-66
2022/08/26 10:46:51;;;;;;;6.97;2.10;;;;;;;;;;5205183;28;20025;-67
2022/08/26 10:49:21;;;;;;;2.78;1.20;;;;;;;;;;5205658;28;20029;-69
2022/08/26 10:51:56;;;;;;;2.60;1.40;;;;;;;;;;5205342;28;20101;-66
2022/08/26 10:54:26;;;;;;;1.23;1.23;;;;;;;;;;5205059;28;20018;-66
2022/08/26 10:57:08;;;;;;;2.07;1.93;;;;;;;;;;5204910;28;20021;-66
2022/08/26 10:59:42;;;;;;;1.45;1.27;;;;;;;;;;5204195;28;20260;-67
2022/08/26 11:02:16;;;;;;;3.80;2.53;;;;;;;;;;5222905;28;20017;-68
2022/08/26 11:04:49;;;;;;;1.85;1.77;;;;;;;;;;5225311;28;20373;-66
2022/08/26 11:07:32;;;;;;;1.52;1.15;;;;;;;;;;5224385;28;20434;-66
2022/08/26 11:10:11;;;;;;;4.93;1.67;;;;;;;;;;5225299;28;20021;-67
2022/08/26 11:12:44;;;;;;;1.23;1.23;;;;;;;;;;5224334;28;20013;-66
2022/08/26 11:15:20;;;;;;;2.15;1.42;;;;;;;;;;5224078;28;20020;-68
2022/08/26 11:17:50;;;;;;;5.18;1.80;;;;;;;;;;5225048;28;20024;-67
2022/08/26 11:20:33;;;;;;;2.33;2.13;;;;;;;;;;5218932;28;20021;-68
2022/08/26 11:23:15;;;;;;;2.40;1.33;;;;;;;;;;5203284;28;20624;-67
2022/08/26 11:25:54;;;;;;;4.53;1.67;;;;;;;;;;5239496;23;20535;-83
2022/08/26 11:28:37;;;;;;;1.77;1.67;;;;;;;;;;5250757;28;20020;-83
2022/08/26 11:31:08;;;;;;;1.38;1.20;;;;;;;;;;5242305;28;20017;-81
2022/08/26 11:33:42;;;;;;;1.95;1.85;;;;;;;;;;5243795;28;20503;-82
2022/08/26 11:36:31;;;;;;;2.00;1.63;;;;;;;;;;5254777;28;20028;-80
2022/08/26 11:39:13;;;;;;;1.67;1.58;;;;;;;;;;5253728;28;20160;-81
2022/08/26 11:41:46;;;;;;;7.53;2.88;;;;;;;;;;5252463;28;20008;-82
2022/08/26 11:44:18;;;;;;;1.85;1.33;;;;;;;;;;5251285;28;20028;-81
2022/08/26 11:46:56;;;;;;;2.15;2.03;;;;;;;;;;5250571;28;20386;-83
2022/08/26 11:49:28;;;;;;;1.95;1.85;;;;;;;;;;5250687;28;20044;-81
2022/08/26 11:52:12;;;;;;;1.77;1.67;;;;;;;;;;5250996;28;20066;-85
2022/08/26 11:55:00;;;;;;;1.35;1.35;;;;;;;;;;5252111;28;20076;-86
2022/08/26 11:57:32;;;;;;;1.38;1.33;;;;;;;;;;5252483;28;20098;-83
2022/08/26 12:00:03;;;;;;;2.00;1.85;;;;;;;;;;5247758;28;20016;-80
2022/08/26 12:02:33;;;;;;;1.40;1.30;;;;;;;;;;5242770;28;20448;-81
2022/08/26 12:05:05;;;;;;;1.23;1.23;;;;;;;;;;5228143;28;20425;-81
2022/08/26 12:07:35;;;;;;;1.90;1.42;;;;;;;;;;5229087;28;20074;-80
2022/08/26 12:10:06;;;;;;;1.50;1.40;;;;;;;;;;5229065;28;20028;-81
2022/08/26 12:12:37;;;;;;;2.40;1.73;;;;;;;;;;5226365;28;20831;-81
2022/08/26 12:15:15;;;;;;;3.38;2.10;;;;;;;;;;5228234;28;20028;-82
2022/08/26 12:17:46;;;;;;;2.65;2.45;;;;;;;;;;5228802;28;20021;-82
2022/08/26 12:20:45;;;;;;;2.10;1.60;;;;;;;;;;5229083;28;20027;-83
2022/08/26 12:23:33;;;;;;;1.50;1.40;;;;;;;;;;5229324;28;20031;-80
2022/08/26 12:26:30;;;;;;;1.40;1.40;;;;;;;;;;5227037;28;20029;-80
2022/08/26 12:29:03;;;;;;;1.10;1.08;;;;;;;;;;5226052;28;20033;-81
2022/08/26 12:31:38;;;;;;;1.58;1.58;;;;;;;;;;5228772;28;20013;-81
2022/08/26 12:34:11;;;;;;;1.38;1.35;;;;;;;;;;5226888;28;20029;-82
2022/08/26 12:36:51;;;;;;;1.45;1.45;;;;;;;;;;5226554;28;20053;-81
2022/08/26 12:39:34;;;;;;;2.97;2.17;;;;;;;;;;5226259;28;20029;-81
2022/08/26 12:42:19;;;;;;;1.70;1.65;;;;;;;;;;5227592;28;20075;-82
2022/08/26 12:44:52;;;;;;;5.45;2.03;;;;;;;;;;5226028;28;20013;-80
2022/08/26 12:47:28;;;;;;;1.48;1.48;;;;;;;;;;5227553;28;20056;-79
2022/08/26 12:50:01;;;;;;;1.73;1.63;;;;;;;;;;5226368;28;20108;-81
2022/08/26 12:52:32;;;;;;;5.00;2.28;;;;;;;;;;5227840;28;20025;-81
2022/08/26 12:55:05;;;;;;;1.67;1.58;;;;;;;;;;5226485;28;20021;-80
2022/08/26 12:57:36;;;;;;;2.15;1.60;;;;;;;;;;5225463;28;20013;-82
2022/08/26 13:00:25;;;;;;;2.25;1.98;;;;;;;;;;5227391;28;20013;-81
2022/08/26 13:02:55;;;;;;;3.78;1.98;;;;;;;;;;5226283;28;20049;-81
2022/08/26 13:05:28;;;;;;;2.38;1.30;;;;;;;;;;5226919;28;20459;-81
2022/08/26 13:08:09;;;;;;;2.92;1.95;;;;;;;;;;5227170;28;20132;-81
2022/08/26 13:10:41;;;;;;;3.53;1.38;;;;;;;;;;5226484;28;20074;-81
2022/08/26 13:13:12;;;;;;;2.63;2.45;;;;;;;;;;5226994;28;20040;-80
2022/08/26 13:15:43;;;;;;;1.92;1.83;;;;;;;;;;5224624;28;20067;-81
2022/08/26 13:18:13;;;;;;;2.03;1.88;;;;;;;;;;5225347;28;20014;-81
2022/08/26 13:20:43;;;;;;;3.80;2.70;;;;;;;;;;5224246;28;20166;-83
2022/08/26 13:23:14;;;;;;;3.20;2.78;;;;;;;;;;5225040;28;20259;-82
2022/08/26 13:25:44;;;;;;;2.58;2.38;;;;;;;;;;5224572;28;20060;-81
2022/08/26 13:28:14;;;;;;;8.83;2.90;;;;;;;;;;5227566;28;20099;-80
2022/08/26 13:30:46;;;;;;;6.28;3.88;;;;;;;;;;5226998;28;20293;-82
2022/08/26 13:33:17;;;;;;;3.35;1.98;;;;;;;;;;5226947;28;20021;-81
2022/08/26 13:35:47;;;;;;;1.58;1.50;;;;;;;;;;5226606;28;20428;-82
2022/08/26 13:38:17;;;;;;;6.40;2.10;;;;;;;;;;5230166;28;20036;-80
2022/08/26 13:40:48;;;;;;;3.23;2.30;;;;;;;;;;5230997;28;20017;-81
2022/08/26 13:43:18;;;;;;;6.60;1.88;;;;;;;;;;5230497;28;20256;-82
2022/08/26 13:45:50;;;;;;;1.50;1.50;;;;;;;;;;5231882;28;20116;-81
2022/08/26 13:48:21;;;;;;;4.85;2.55;;;;;;;;;;5235008;28;20709;-82
2022/08/26 13:50:52;;;;;;;1.60;1.50;;;;;;;;;;5231750;28;20025;-81
2022/08/26 13:53:23;;;;;;;2.58;2.22;;;;;;;;;;5230992;28;20028;-81
2022/08/26 13:55:53;;;;;;;2.38;2.17;;;;;;;;;;5233455;28;20020;-80
2022/08/26 13:58:24;;;;;;;1.52;1.52;;;;;;;;;;5237258;28;20017;-78
2022/08/26 14:00:55;;;;;;;5.18;2.50;;;;;;;;;;5235370;28;20021;-78
2022/08/26 14:03:25;;;;;;;3.25;2.80;;;;;;;;;;5238129;28;20017;-77
2022/08/26 14:05:55;;;;;;;2.90;2.77;;;;;;;;;;5240987;28;20036;-77
2022/08/26 14:08:26;;;;;;;2.93;2.73;;;;;;;;;;5239619;28;20271;-77
2022/08/26 14:10:57;;;;;;;4.38;4.05;;;;;;;;;;5239653;28;20601;-77
2022/08/26 14:13:27;;;;;;;5.00;3.03;;;;;;;;;;5238318;28;20063;-78
2022/08/26 14:16:00;;;;;;;1.93;1.83;;;;;;;;;;5239328;28;20076;-78
2022/08/26 14:18:32;;;;;;;3.60;2.50;;;;;;;;;;5239426;28;20725;-78
2022/08/26 14:21:03;;;;;;;3.88;2.22;;;;;;;;;;5239432;28;20092;-78
2022/08/26 14:23:33;;;;;;;6.35;3.08;;;;;;;;;;5235153;28;20021;-78
2022/08/26 14:26:07;;;;;;;2.95;2.53;;;;;;;;;;5238288;28;20511;-78
2022/08/26 14:28:37;;;;;;;2.88;2.40;;;;;;;;;;5237751;28;20016;-79
2022/08/26 14:31:07;;;;;;;2.28;2.17;;;;;;;;;;5237384;28;20025;-78
2022/08/26 14:36:45;;;;;;;9.27;3.70;;;;;;;;;;5238323;28;20047;-81
2022/08/26 14:39:16;;;;;;;4.13;2.87;;;;;;;;;;5241992;28;20056;-78
2022/08/26 14:41:49;;;;;;;2.20;2.03;;;;;;;;;;5244189;28;20555;-79
2022/08/26 14:44:20;;;;;;;2.85;2.65;;;;;;;;;;5243795;28;20017;-79
2022/08/26 14:46:51;;;;;;;2.42;2.22;;;;;;;;;;5244812;28;20020;-80
2022/08/26 14:49:22;;;;;;;2.05;1.90;;;;;;;;;;5248694;28;20013;-79
2022/08/26 14:51:53;;;;;;;2.30;2.20;;;;;;;;;;5249170;28;20036;-79
2022/08/26 14:54:23;;;;;;;4.22;2.05;;;;;;;;;;5244478;28;20051;-80
2022/08/26 14:56:54;;;;;;;2.23;2.10;;;;;;;;;;5242159;28;20039;-79
2022/08/26 14:59:26;;;;;;;1.85;1.75;;;;;;;;;;5234949;28;20333;-80
2022/08/26 15:01:56;;;;;;;2.53;2.15;;;;;;;;;;5235458;28;20021;-80
2022/08/26 15:04:27;;;;;;;7.10;2.42;;;;;;;;;;5230266;28;20036;-80
2022/08/26 15:06:58;;;;;;;3.40;2.35;;;;;;;;;;5227837;28;20050;-80
2022/08/26 15:09:30;;;;;;;3.13;2.72;;;;;;;;;;5229205;28;20434;-80
2022/08/26 15:12:00;;;;;;;2.22;2.13;;;;;;;;;;5231562;28;20017;-81
2022/08/26 15:14:30;;;;;;;2.45;2.28;;;;;;;;;;5230595;28;20021;-80
2022/08/26 15:17:01;;;;;;;2.20;2.10;;;;;;;;;;5231131;28;20013;-80
2022/08/26 15:19:31;;;;;;;2.35;2.25;;;;;;;;;;5234489;28;20030;-79
2022/08/26 15:22:01;;;;;;;3.38;3.08;;;;;;;;;;5251226;28;20378;-78
2022/08/26 15:24:32;;;;;;;2.43;2.10;;;;;;;;;;5251893;28;20103;-78
2022/08/26 15:27:02;;;;;;;2.38;2.15;;;;;;;;;;5235647;28;20264;-79
2022/08/26 15:29:32;;;;;;;2.20;2.08;;;;;;;;;;5232469;28;20052;-79